Ana Sayfa
METAR-TAF:

METAR-TAF

Havaalanları :

Şanghay-Pudong, Çin

Şanghay Pudong Uluslararası Havalimanı

Enlem: 31-07N, Boylam: 121-46E, yükseklik: 4 m

Güncel hava durumu gözlemi

Rapor saat 11:30 UTC de 39 dakika önce yapıldı.
Rüzgar güney/güneydoğudan 8 kt
Sıcaklık 7°C
Nem 81%
Basınç 1024 hPa
Görüş mesafesi: 7000 m

METAR: ZSPD 231130Z 15004MPS 7000 NSC 07/04 Q1024 NOSIG

Saat: 20:09 (12:09 UTC)

Tahmin

Rapor saat 09:23 UTC de 2 saat ve 46 dakika önce yapıldı.
Ayın 23'si saat 12 UTC'den ayın 24'si saat 12 UTC'ye kadar geçerli Tahmin
Rüzgar güneydoğudan 8 kt
Görüş mesafesi: 5000 m
2000 ft yükseklikte parçalı çok bulutlu
Pus

TAF: ZSPD 230923Z 2312/2412 13004MPS 5000 BR BKN020 TX13/2406Z TN05/2321Z

4.000'den fazla havaalanı için hava durumu gözlemleri ve tahminleri (METAR ve TAF raporları).

Kullanılabilir istasyonlar harita üzerinde sarı ve kırmızı noktalarla gösterilir.

İstasyonun adını görmek için fareyi noktanın üzerinde gezdirin.

Sonrasında hava gözlem ve tahminlerini görmek için tıklayın.

Haritayı değiştirmek için: yaklaştırmak için siyah artı işaretli yeşil düğmeye ve uzaklaştırmak için de eksi işaretli düğmeye hızla tıklayın; bitişik haritalar için yeşil okları kullanın.


METAR-TAF: